sensor_id;sensor_type;location;lat;lon;timestamp;temperature;humidity
44843;DHT22;31884;52.538;13.820;2023-08-17T00:02:12;18.90;99.90
44843;DHT22;31884;52.538;13.820;2023-08-17T00:04:38;18.90;99.90
44843;DHT22;31884;52.538;13.820;2023-08-17T00:07:04;18.90;99.90
44843;DHT22;31884;52.538;13.820;2023-08-17T00:09:30;18.80;99.90
44843;DHT22;31884;52.538;13.820;2023-08-17T00:11:55;18.80;99.90
44843;DHT22;31884;52.538;13.820;2023-08-17T00:14:21;18.70;99.90
44843;DHT22;31884;52.538;13.820;2023-08-17T00:16:48;18.80;99.90
44843;DHT22;31884;52.538;13.820;2023-08-17T00:19:14;18.70;99.90
44843;DHT22;31884;52.538;13.820;2023-08-17T00:21:39;18.70;99.90
44843;DHT22;31884;52.538;13.820;2023-08-17T00:24:05;18.70;99.90
44843;DHT22;31884;52.538;13.820;2023-08-17T00:26:30;18.60;99.90
44843;DHT22;31884;52.538;13.820;2023-08-17T00:28:56;18.70;99.90
44843;DHT22;31884;52.538;13.820;2023-08-17T00:31:21;18.60;99.90
44843;DHT22;31884;52.538;13.820;2023-08-17T00:33:47;18.60;99.90
44843;DHT22;31884;52.538;13.820;2023-08-17T00:36:12;18.60;99.90
44843;DHT22;31884;52.538;13.820;2023-08-17T00:38:38;18.60;99.90
44843;DHT22;31884;52.538;13.820;2023-08-17T00:41:03;18.50;99.90
44843;DHT22;31884;52.538;13.820;2023-08-17T00:43:29;18.50;99.90
44843;DHT22;31884;52.538;13.820;2023-08-17T00:45:54;18.50;99.90
44843;DHT22;31884;52.538;13.820;2023-08-17T00:48:20;18.50;99.90
44843;DHT22;31884;52.538;13.820;2023-08-17T00:50:48;18.40;99.90
44843;DHT22;31884;52.538;13.820;2023-08-17T00:53:14;18.40;99.90
44843;DHT22;31884;52.538;13.820;2023-08-17T00:55:42;18.40;99.90
44843;DHT22;31884;52.538;13.820;2023-08-17T00:58:07;18.40;99.90
44843;DHT22;31884;52.538;13.820;2023-08-17T01:00:33;18.30;99.90
44843;DHT22;31884;52.538;13.820;2023-08-17T01:02:59;18.30;99.90
44843;DHT22;31884;52.538;13.820;2023-08-17T01:05:25;18.30;99.90
44843;DHT22;31884;52.538;13.820;2023-08-17T01:07:50;18.30;99.90
44843;DHT22;31884;52.538;13.820;2023-08-17T01:10:16;18.20;99.90
44843;DHT22;31884;52.538;13.820;2023-08-17T01:13:05;18.30;99.90
44843;DHT22;31884;52.538;13.820;2023-08-17T01:15:42;18.20;99.90
44843;DHT22;31884;52.538;13.820;2023-08-17T01:18:11;18.20;99.90
44843;DHT22;31884;52.538;13.820;2023-08-17T01:20:41;18.20;99.90
44843;DHT22;31884;52.538;13.820;2023-08-17T01:23:07;18.10;99.90
44843;DHT22;31884;52.538;13.820;2023-08-17T01:25:32;18.10;99.90
44843;DHT22;31884;52.538;13.820;2023-08-17T01:28:04;18.10;99.90
44843;DHT22;31884;52.538;13.820;2023-08-17T01:30:34;18.10;99.90
44843;DHT22;31884;52.538;13.820;2023-08-17T01:36:37;18.10;99.90
44843;DHT22;31884;52.538;13.820;2023-08-17T01:39:03;18.10;99.90
44843;DHT22;31884;52.538;13.820;2023-08-17T01:41:30;18.00;99.90
44843;DHT22;31884;52.538;13.820;2023-08-17T01:43:56;18.00;99.90
44843;DHT22;31884;52.538;13.820;2023-08-17T01:46:22;18.00;99.90
44843;DHT22;31884;52.538;13.820;2023-08-17T01:48:48;18.00;99.90
44843;DHT22;31884;52.538;13.820;2023-08-17T01:51:19;18.00;99.90
44843;DHT22;31884;52.538;13.820;2023-08-17T01:53:45;17.90;99.90
44843;DHT22;31884;52.538;13.820;2023-08-17T01:56:11;18.00;99.90
44843;DHT22;31884;52.538;13.820;2023-08-17T01:58:36;18.00;99.90
44843;DHT22;31884;52.538;13.820;2023-08-17T02:01:02;17.90;99.90
44843;DHT22;31884;52.538;13.820;2023-08-17T02:03:27;17.90;99.90
44843;DHT22;31884;52.538;13.820;2023-08-17T02:05:55;17.90;99.90
44843;DHT22;31884;52.538;13.820;2023-08-17T02:08:21;17.90;99.90
44843;DHT22;31884;52.538;13.820;2023-08-17T02:10:47;17.80;99.90
44843;DHT22;31884;52.538;13.820;2023-08-17T02:13:12;17.80;99.90
44843;DHT22;31884;52.538;13.820;2023-08-17T02:15:39;17.80;99.90
44843;DHT22;31884;52.538;13.820;2023-08-17T02:18:04;17.80;99.90
44843;DHT22;31884;52.538;13.820;2023-08-17T02:20:30;17.80;99.90
44843;DHT22;31884;52.538;13.820;2023-08-17T02:22:55;17.80;99.90
44843;DHT22;31884;52.538;13.820;2023-08-17T02:25:21;17.70;99.90
44843;DHT22;31884;52.538;13.820;2023-08-17T02:27:46;17.70;99.90
44843;DHT22;31884;52.538;13.820;2023-08-17T02:30:12;17.70;99.90
44843;DHT22;31884;52.538;13.820;2023-08-17T02:32:38;17.70;99.90
44843;DHT22;31884;52.538;13.820;2023-08-17T02:35:04;17.70;99.90
44843;DHT22;31884;52.538;13.820;2023-08-17T02:37:29;17.60;99.90
44843;DHT22;31884;52.538;13.820;2023-08-17T02:39:55;17.60;99.90
44843;DHT22;31884;52.538;13.820;2023-08-17T02:42:20;17.60;99.90
44843;DHT22;31884;52.538;13.820;2023-08-17T02:44:46;17.60;99.90
44843;DHT22;31884;52.538;13.820;2023-08-17T02:47:12;17.50;99.90
44843;DHT22;31884;52.538;13.820;2023-08-17T02:49:37;17.50;99.90
44843;DHT22;31884;52.538;13.820;2023-08-17T02:52:03;17.50;99.90
44843;DHT22;31884;52.538;13.820;2023-08-17T02:54:28;17.50;99.90
44843;DHT22;31884;52.538;13.820;2023-08-17T02:56:54;17.50;99.90
44843;DHT22;31884;52.538;13.820;2023-08-17T02:59:19;17.50;99.90
44843;DHT22;31884;52.538;13.820;2023-08-17T03:01:45;17.50;99.90
44843;DHT22;31884;52.538;13.820;2023-08-17T03:04:11;17.50;99.90
44843;DHT22;31884;52.538;13.820;2023-08-17T03:06:36;17.50;99.90
44843;DHT22;31884;52.538;13.820;2023-08-17T03:09:02;17.50;99.90
44843;DHT22;31884;52.538;13.820;2023-08-17T03:11:27;17.50;99.90
44843;DHT22;31884;52.538;13.820;2023-08-17T03:13:53;17.50;99.90
44843;DHT22;31884;52.538;13.820;2023-08-17T03:16:25;17.50;99.90
44843;DHT22;31884;52.538;13.820;2023-08-17T03:18:51;17.50;99.90
44843;DHT22;31884;52.538;13.820;2023-08-17T03:21:16;17.50;99.90
44843;DHT22;31884;52.538;13.820;2023-08-17T03:23:42;17.50;99.90
44843;DHT22;31884;52.538;13.820;2023-08-17T03:26:08;17.50;99.90
44843;DHT22;31884;52.538;13.820;2023-08-17T03:28:33;17.50;99.90
44843;DHT22;31884;52.538;13.820;2023-08-17T03:30:59;17.50;99.90
44843;DHT22;31884;52.538;13.820;2023-08-17T03:33:24;17.50;99.90
44843;DHT22;31884;52.538;13.820;2023-08-17T03:35:50;17.50;99.90
44843;DHT22;31884;52.538;13.820;2023-08-17T03:38:15;17.50;99.90
44843;DHT22;31884;52.538;13.820;2023-08-17T03:40:41;17.50;99.90
44843;DHT22;31884;52.538;13.820;2023-08-17T03:43:06;17.50;99.90
44843;DHT22;31884;52.538;13.820;2023-08-17T03:45:32;17.50;99.90
44843;DHT22;31884;52.538;13.820;2023-08-17T03:47:58;17.60;99.90
44843;DHT22;31884;52.538;13.820;2023-08-17T03:50:27;17.60;99.90
44843;DHT22;31884;52.538;13.820;2023-08-17T03:52:52;17.60;99.90
44843;DHT22;31884;52.538;13.820;2023-08-17T03:55:18;17.70;99.90
44843;DHT22;31884;52.538;13.820;2023-08-17T03:57:43;17.70;99.90
44843;DHT22;31884;52.538;13.820;2023-08-17T04:00:09;17.70;99.90
44843;DHT22;31884;52.538;13.820;2023-08-17T04:02:35;17.80;99.90
44843;DHT22;31884;52.538;13.820;2023-08-17T04:05:01;17.80;99.90
44843;DHT22;31884;52.538;13.820;2023-08-17T04:07:26;17.80;99.90
44843;DHT22;31884;52.538;13.820;2023-08-17T04:09:52;17.80;99.90
44843;DHT22;31884;52.538;13.820;2023-08-17T04:12:17;17.90;99.80
44843;DHT22;31884;52.538;13.820;2023-08-17T04:14:44;17.90;99.60
44843;DHT22;31884;52.538;13.820;2023-08-17T04:17:09;17.90;99.30
44843;DHT22;31884;52.538;13.820;2023-08-17T04:19:35;18.00;98.90
44843;DHT22;31884;52.538;13.820;2023-08-17T04:22:00;18.00;98.60
44843;DHT22;31884;52.538;13.820;2023-08-17T04:24:26;18.00;98.20
44843;DHT22;31884;52.538;13.820;2023-08-17T04:26:51;18.20;97.60
44843;DHT22;31884;52.538;13.820;2023-08-17T04:29:17;18.20;97.70
44843;DHT22;31884;52.538;13.820;2023-08-17T04:31:42;18.30;97.30
44843;DHT22;31884;52.538;13.820;2023-08-17T04:34:08;18.30;96.70
44843;DHT22;31884;52.538;13.820;2023-08-17T04:36:33;18.40;95.60
44843;DHT22;31884;52.538;13.820;2023-08-17T04:38:58;18.40;95.70
44843;DHT22;31884;52.538;13.820;2023-08-17T04:41:24;18.50;95.20
44843;DHT22;31884;52.538;13.820;2023-08-17T04:43:50;18.50;94.60
44843;DHT22;31884;52.538;13.820;2023-08-17T04:46:15;18.50;94.50
44843;DHT22;31884;52.538;13.820;2023-08-17T04:48:41;18.60;94.30
44843;DHT22;31884;52.538;13.820;2023-08-17T04:51:06;18.70;94.40
44843;DHT22;31884;52.538;13.820;2023-08-17T04:53:32;18.80;93.50
44843;DHT22;31884;52.538;13.820;2023-08-17T04:55:58;18.80;93.70
44843;DHT22;31884;52.538;13.820;2023-08-17T04:58:24;18.90;92.90
44843;DHT22;31884;52.538;13.820;2023-08-17T05:00:50;19.10;92.70
44843;DHT22;31884;52.538;13.820;2023-08-17T05:03:15;19.60;92.00
44843;DHT22;31884;52.538;13.820;2023-08-17T05:05:41;19.90;91.30
44843;DHT22;31884;52.538;13.820;2023-08-17T05:08:06;20.10;91.10
44843;DHT22;31884;52.538;13.820;2023-08-17T05:10:32;20.10;90.30
44843;DHT22;31884;52.538;13.820;2023-08-17T05:12:57;20.10;87.50
44843;DHT22;31884;52.538;13.820;2023-08-17T05:15:23;20.40;86.90
44843;DHT22;31884;52.538;13.820;2023-08-17T05:17:48;20.50;84.10
44843;DHT22;31884;52.538;13.820;2023-08-17T05:20:14;20.70;85.20
44843;DHT22;31884;52.538;13.820;2023-08-17T05:22:40;20.70;82.40
44843;DHT22;31884;52.538;13.820;2023-08-17T05:25:05;20.60;81.20
44843;DHT22;31884;52.538;13.820;2023-08-17T05:27:31;20.60;84.80
44843;DHT22;31884;52.538;13.820;2023-08-17T05:29:56;20.40;83.20
44843;DHT22;31884;52.538;13.820;2023-08-17T05:32:22;20.20;83.20
44843;DHT22;31884;52.538;13.820;2023-08-17T05:34:47;20.60;83.90
44843;DHT22;31884;52.538;13.820;2023-08-17T05:37:13;21.40;78.10
44843;DHT22;31884;52.538;13.820;2023-08-17T05:39:40;22.00;79.00
44843;DHT22;31884;52.538;13.820;2023-08-17T05:42:06;22.60;75.30
44843;DHT22;31884;52.538;13.820;2023-08-17T05:44:32;22.80;72.20
44843;DHT22;31884;52.538;13.820;2023-08-17T05:46:58;23.00;71.10
44843;DHT22;31884;52.538;13.820;2023-08-17T05:49:23;22.50;72.60
44843;DHT22;31884;52.538;13.820;2023-08-17T05:51:49;22.40;70.90
44843;DHT22;31884;52.538;13.820;2023-08-17T05:54:14;22.10;73.50
44843;DHT22;31884;52.538;13.820;2023-08-17T05:56:40;22.10;73.50
44843;DHT22;31884;52.538;13.820;2023-08-17T05:59:10;22.40;71.90
44843;DHT22;31884;52.538;13.820;2023-08-17T06:01:35;22.70;73.20
44843;DHT22;31884;52.538;13.820;2023-08-17T06:04:01;22.70;69.90
44843;DHT22;31884;52.538;13.820;2023-08-17T06:06:27;22.30;73.00
44843;DHT22;31884;52.538;13.820;2023-08-17T06:08:52;22.10;74.00
44843;DHT22;31884;52.538;13.820;2023-08-17T06:11:18;22.20;74.40
44843;DHT22;31884;52.538;13.820;2023-08-17T06:13:43;22.00;74.10
44843;DHT22;31884;52.538;13.820;2023-08-17T06:16:09;22.10;73.70
44843;DHT22;31884;52.538;13.820;2023-08-17T06:18:36;22.10;73.80
44843;DHT22;31884;52.538;13.820;2023-08-17T06:21:01;22.40;71.80
44843;DHT22;31884;52.538;13.820;2023-08-17T06:23:27;23.00;71.50
44843;DHT22;31884;52.538;13.820;2023-08-17T06:25:56;24.20;66.80
44843;DHT22;31884;52.538;13.820;2023-08-17T06:28:22;25.20;66.20
44843;DHT22;31884;52.538;13.820;2023-08-17T06:30:52;26.20;62.00
44843;DHT22;31884;52.538;13.820;2023-08-17T06:33:18;27.40;59.80
44843;DHT22;31884;52.538;13.820;2023-08-17T06:35:44;28.70;58.60
44843;DHT22;31884;52.538;13.820;2023-08-17T06:38:09;29.50;55.00
44843;DHT22;31884;52.538;13.820;2023-08-17T06:40:35;30.30;53.00
44843;DHT22;31884;52.538;13.820;2023-08-17T06:43:00;30.50;50.00
44843;DHT22;31884;52.538;13.820;2023-08-17T06:45:26;29.50;40.70
44843;DHT22;31884;52.538;13.820;2023-08-17T06:47:51;28.20;47.50
44843;DHT22;31884;52.538;13.820;2023-08-17T06:50:17;26.90;49.80
44843;DHT22;31884;52.538;13.820;2023-08-17T06:52:42;26.10;52.60
44843;DHT22;31884;52.538;13.820;2023-08-17T06:55:08;25.60;54.40
44843;DHT22;31884;52.538;13.820;2023-08-17T06:57:35;24.90;55.40
44843;DHT22;31884;52.538;13.820;2023-08-17T07:00:00;24.40;56.90
44843;DHT22;31884;52.538;13.820;2023-08-17T07:02:26;24.10;58.60
44843;DHT22;31884;52.538;13.820;2023-08-17T07:04:51;24.30;59.10
44843;DHT22;31884;52.538;13.820;2023-08-17T07:07:17;25.00;57.70
44843;DHT22;31884;52.538;13.820;2023-08-17T07:09:42;25.80;56.50
44843;DHT22;31884;52.538;13.820;2023-08-17T07:12:08;26.20;52.90
44843;DHT22;31884;52.538;13.820;2023-08-17T07:14:33;26.70;51.30
44843;DHT22;31884;52.538;13.820;2023-08-17T07:16:59;27.70;49.00
44843;DHT22;31884;52.538;13.820;2023-08-17T07:19:24;27.90;50.20
44843;DHT22;31884;52.538;13.820;2023-08-17T07:21:50;27.30;49.60
44843;DHT22;31884;52.538;13.820;2023-08-17T07:24:16;26.80;48.00
44843;DHT22;31884;52.538;13.820;2023-08-17T07:26:42;26.70;51.30
44843;DHT22;31884;52.538;13.820;2023-08-17T07:29:07;26.00;50.90
44843;DHT22;31884;52.538;13.820;2023-08-17T07:31:33;26.50;51.20
44843;DHT22;31884;52.538;13.820;2023-08-17T07:33:59;27.40;49.20
44843;DHT22;31884;52.538;13.820;2023-08-17T07:36:25;27.80;46.00
44843;DHT22;31884;52.538;13.820;2023-08-17T07:38:50;27.30;47.30
44843;DHT22;31884;52.538;13.820;2023-08-17T07:41:16;27.00;49.30
44843;DHT22;31884;52.538;13.820;2023-08-17T07:43:41;26.90;50.10
44843;DHT22;31884;52.538;13.820;2023-08-17T07:46:07;26.60;50.90
44843;DHT22;31884;52.538;13.820;2023-08-17T07:48:32;26.60;50.90
44843;DHT22;31884;52.538;13.820;2023-08-17T07:50:59;26.50;50.50
44843;DHT22;31884;52.538;13.820;2023-08-17T07:53:24;26.00;51.70
44843;DHT22;31884;52.538;13.820;2023-08-17T07:55:50;26.10;52.50
44843;DHT22;31884;52.538;13.820;2023-08-17T07:58:15;25.90;52.50
44843;DHT22;31884;52.538;13.820;2023-08-17T08:00:41;26.00;52.50
44843;DHT22;31884;52.538;13.820;2023-08-17T08:03:06;25.70;53.20
44843;DHT22;31884;52.538;13.820;2023-08-17T08:05:32;25.70;53.10
44843;DHT22;31884;52.538;13.820;2023-08-17T08:07:57;25.50;54.20
44843;DHT22;31884;52.538;13.820;2023-08-17T08:10:23;25.30;54.80
44843;DHT22;31884;52.538;13.820;2023-08-17T08:12:48;24.90;55.50
44843;DHT22;31884;52.538;13.820;2023-08-17T08:15:14;24.40;57.30
44843;DHT22;31884;52.538;13.820;2023-08-17T08:17:39;23.80;59.50
44843;DHT22;31884;52.538;13.820;2023-08-17T08:20:06;23.80;61.30
44843;DHT22;31884;52.538;13.820;2023-08-17T08:22:32;23.80;61.00
44843;DHT22;31884;52.538;13.820;2023-08-17T08:24:57;23.90;61.00
44843;DHT22;31884;52.538;13.820;2023-08-17T08:27:23;24.10;62.00
44843;DHT22;31884;52.538;13.820;2023-08-17T08:29:50;23.90;62.20
44843;DHT22;31884;52.538;13.820;2023-08-17T08:32:15;24.00;62.80
44843;DHT22;31884;52.538;13.820;2023-08-17T08:34:41;23.90;63.60
44843;DHT22;31884;52.538;13.820;2023-08-17T08:37:06;24.00;63.80
44843;DHT22;31884;52.538;13.820;2023-08-17T08:39:32;24.10;63.10
44843;DHT22;31884;52.538;13.820;2023-08-17T08:41:58;24.30;62.60
44843;DHT22;31884;52.538;13.820;2023-08-17T08:44:23;24.60;62.70
44843;DHT22;31884;52.538;13.820;2023-08-17T08:46:50;24.70;61.60
44843;DHT22;31884;52.538;13.820;2023-08-17T08:49:20;24.90;61.90
44843;DHT22;31884;52.538;13.820;2023-08-17T08:51:50;25.00;61.30
44843;DHT22;31884;52.538;13.820;2023-08-17T08:54:21;24.60;62.00
44843;DHT22;31884;52.538;13.820;2023-08-17T08:56:53;24.80;63.20
44843;DHT22;31884;52.538;13.820;2023-08-17T08:59:20;25.00;62.60
44843;DHT22;31884;52.538;13.820;2023-08-17T09:01:47;24.90;61.90
44843;DHT22;31884;52.538;13.820;2023-08-17T09:04:13;25.00;62.20
44843;DHT22;31884;52.538;13.820;2023-08-17T09:06:39;25.20;62.70
44843;DHT22;31884;52.538;13.820;2023-08-17T09:09:05;25.70;62.00
44843;DHT22;31884;52.538;13.820;2023-08-17T09:11:32;25.90;60.70
44843;DHT22;31884;52.538;13.820;2023-08-17T09:13:57;26.00;59.60
44843;DHT22;31884;52.538;13.820;2023-08-17T09:16:23;25.80;60.50
44843;DHT22;31884;52.538;13.820;2023-08-17T09:18:48;25.60;62.30
44843;DHT22;31884;52.538;13.820;2023-08-17T09:21:24;25.90;62.30
44843;DHT22;31884;52.538;13.820;2023-08-17T09:23:56;25.70;61.10
44843;DHT22;31884;52.538;13.820;2023-08-17T09:26:22;25.30;62.80
44843;DHT22;31884;52.538;13.820;2023-08-17T09:28:49;24.90;64.70
44843;DHT22;31884;52.538;13.820;2023-08-17T09:31:14;24.90;64.90
44843;DHT22;31884;52.538;13.820;2023-08-17T09:33:40;24.50;65.90
44843;DHT22;31884;52.538;13.820;2023-08-17T09:36:05;24.80;66.10
44843;DHT22;31884;52.538;13.820;2023-08-17T09:38:31;25.00;65.50
44843;DHT22;31884;52.538;13.820;2023-08-17T09:40:57;24.70;66.10
44843;DHT22;31884;52.538;13.820;2023-08-17T09:43:24;24.90;66.80
44843;DHT22;31884;52.538;13.820;2023-08-17T09:45:50;25.20;64.80
44843;DHT22;31884;52.538;13.820;2023-08-17T09:48:17;25.30;64.50
44843;DHT22;31884;52.538;13.820;2023-08-17T09:50:43;25.00;66.10
44843;DHT22;31884;52.538;13.820;2023-08-17T09:53:13;24.70;66.50
44843;DHT22;31884;52.538;13.820;2023-08-17T09:55:41;24.70;67.40
44843;DHT22;31884;52.538;13.820;2023-08-17T09:58:06;24.50;67.30
44843;DHT22;31884;52.538;13.820;2023-08-17T10:00:33;24.40;68.30
44843;DHT22;31884;52.538;13.820;2023-08-17T10:03:03;24.20;69.20
44843;DHT22;31884;52.538;13.820;2023-08-17T10:05:33;24.30;68.80
44843;DHT22;31884;52.538;13.820;2023-08-17T10:08:00;24.40;69.20
44843;DHT22;31884;52.538;13.820;2023-08-17T10:10:29;24.50;68.10
44843;DHT22;31884;52.538;13.820;2023-08-17T10:13:06;24.50;68.60
44843;DHT22;31884;52.538;13.820;2023-08-17T10:15:35;24.30;70.00
44843;DHT22;31884;52.538;13.820;2023-08-17T10:18:17;24.30;69.40
44843;DHT22;31884;52.538;13.820;2023-08-17T10:20:54;24.20;70.90
44843;DHT22;31884;52.538;13.820;2023-08-17T10:23:22;23.90;73.10
44843;DHT22;31884;52.538;13.820;2023-08-17T10:25:49;23.60;75.50
44843;DHT22;31884;52.538;13.820;2023-08-17T10:28:16;23.30;83.90
44843;DHT22;31884;52.538;13.820;2023-08-17T10:30:43;23.00;88.20
44843;DHT22;31884;52.538;13.820;2023-08-17T10:33:08;22.80;90.80
44843;DHT22;31884;52.538;13.820;2023-08-17T10:35:35;22.60;89.30
44843;DHT22;31884;52.538;13.820;2023-08-17T10:38:03;22.50;91.00
44843;DHT22;31884;52.538;13.820;2023-08-17T10:40:35;22.60;91.80
44843;DHT22;31884;52.538;13.820;2023-08-17T10:43:01;22.70;91.30
44843;DHT22;31884;52.538;13.820;2023-08-17T10:45:28;22.90;90.40
44843;DHT22;31884;52.538;13.820;2023-08-17T10:50:35;23.20;89.80
44843;DHT22;31884;52.538;13.820;2023-08-17T10:53:08;23.30;90.60
44843;DHT22;31884;52.538;13.820;2023-08-17T10:55:44;23.40;90.40
44843;DHT22;31884;52.538;13.820;2023-08-17T10:58:09;23.60;89.10
44843;DHT22;31884;52.538;13.820;2023-08-17T11:00:38;23.80;88.20
44843;DHT22;31884;52.538;13.820;2023-08-17T11:03:07;24.10;87.30
44843;DHT22;31884;52.538;13.820;2023-08-17T11:05:36;24.30;84.50
44843;DHT22;31884;52.538;13.820;2023-08-17T11:08:03;24.60;84.20
44843;DHT22;31884;52.538;13.820;2023-08-17T11:10:29;24.90;81.60
44843;DHT22;31884;52.538;13.820;2023-08-17T11:12:55;25.00;81.40
44843;DHT22;31884;52.538;13.820;2023-08-17T11:15:38;25.20;80.90
44843;DHT22;31884;52.538;13.820;2023-08-17T11:18:06;25.30;80.20
44843;DHT22;31884;52.538;13.820;2023-08-17T11:20:32;25.20;80.10
44843;DHT22;31884;52.538;13.820;2023-08-17T11:22:58;25.20;80.20
44843;DHT22;31884;52.538;13.820;2023-08-17T11:25:26;25.10;79.10
44843;DHT22;31884;52.538;13.820;2023-08-17T11:27:52;25.00;79.60
44843;DHT22;31884;52.538;13.820;2023-08-17T11:30:19;24.90;80.60
44843;DHT22;31884;52.538;13.820;2023-08-17T11:32:45;24.90;78.80
44843;DHT22;31884;52.538;13.820;2023-08-17T11:35:11;24.90;78.90
44843;DHT22;31884;52.538;13.820;2023-08-17T11:37:36;24.90;80.00
44843;DHT22;31884;52.538;13.820;2023-08-17T11:40:02;25.10;78.80
44843;DHT22;31884;52.538;13.820;2023-08-17T11:42:29;25.10;78.40
44843;DHT22;31884;52.538;13.820;2023-08-17T11:44:55;25.20;78.20
44843;DHT22;31884;52.538;13.820;2023-08-17T11:47:21;25.50;78.00
44843;DHT22;31884;52.538;13.820;2023-08-17T11:49:49;25.50;77.80
44843;DHT22;31884;52.538;13.820;2023-08-17T11:52:14;25.50;78.50
44843;DHT22;31884;52.538;13.820;2023-08-17T11:54:41;25.40;75.80
44843;DHT22;31884;52.538;13.820;2023-08-17T11:57:07;25.40;75.00
44843;DHT22;31884;52.538;13.820;2023-08-17T11:59:32;25.30;75.90
44843;DHT22;31884;52.538;13.820;2023-08-17T12:01:59;25.30;76.70
44843;DHT22;31884;52.538;13.820;2023-08-17T12:04:25;25.40;76.50
44843;DHT22;31884;52.538;13.820;2023-08-17T12:06:51;25.40;76.50
44843;DHT22;31884;52.538;13.820;2023-08-17T12:09:18;25.40;77.00
44843;DHT22;31884;52.538;13.820;2023-08-17T12:11:45;25.40;75.90
44843;DHT22;31884;52.538;13.820;2023-08-17T12:14:12;25.40;76.50
44843;DHT22;31884;52.538;13.820;2023-08-17T12:16:48;25.50;76.60
44843;DHT22;31884;52.538;13.820;2023-08-17T12:19:16;25.50;76.10
44843;DHT22;31884;52.538;13.820;2023-08-17T12:21:42;25.50;76.30
44843;DHT22;31884;52.538;13.820;2023-08-17T12:24:11;25.50;76.90
44843;DHT22;31884;52.538;13.820;2023-08-17T12:26:46;25.60;76.30
44843;DHT22;31884;52.538;13.820;2023-08-17T12:29:12;25.80;76.80
44843;DHT22;31884;52.538;13.820;2023-08-17T12:31:38;25.80;74.30
44843;DHT22;31884;52.538;13.820;2023-08-17T12:34:04;26.00;75.80
44843;DHT22;31884;52.538;13.820;2023-08-17T12:36:31;26.10;74.70
44843;DHT22;31884;52.538;13.820;2023-08-17T12:38:57;26.50;74.40
44843;DHT22;31884;52.538;13.820;2023-08-17T12:41:22;26.40;71.50
44843;DHT22;31884;52.538;13.820;2023-08-17T12:43:48;26.40;72.70
44843;DHT22;31884;52.538;13.820;2023-08-17T12:46:13;26.50;72.80
44843;DHT22;31884;52.538;13.820;2023-08-17T12:48:39;26.30;72.80
44843;DHT22;31884;52.538;13.820;2023-08-17T12:51:05;26.10;72.40
44843;DHT22;31884;52.538;13.820;2023-08-17T12:53:30;26.00;73.20
44843;DHT22;31884;52.538;13.820;2023-08-17T12:55:56;26.00;73.80
44843;DHT22;31884;52.538;13.820;2023-08-17T12:58:21;26.00;74.40
44843;DHT22;31884;52.538;13.820;2023-08-17T13:00:47;25.90;75.30
44843;DHT22;31884;52.538;13.820;2023-08-17T13:03:15;26.00;74.30
44843;DHT22;31884;52.538;13.820;2023-08-17T13:05:41;25.80;74.20
44843;DHT22;31884;52.538;13.820;2023-08-17T13:08:06;25.90;75.70
44843;DHT22;31884;52.538;13.820;2023-08-17T13:10:33;25.90;74.70
44843;DHT22;31884;52.538;13.820;2023-08-17T13:12:59;25.70;74.30
44843;DHT22;31884;52.538;13.820;2023-08-17T13:15:24;25.80;74.10
44843;DHT22;31884;52.538;13.820;2023-08-17T13:17:50;26.10;75.40
44843;DHT22;31884;52.538;13.820;2023-08-17T13:20:16;25.90;74.30
44843;DHT22;31884;52.538;13.820;2023-08-17T13:22:41;25.80;74.20
44843;DHT22;31884;52.538;13.820;2023-08-17T13:25:07;25.70;75.00
44843;DHT22;31884;52.538;13.820;2023-08-17T13:27:33;25.80;74.80
44843;DHT22;31884;52.538;13.820;2023-08-17T13:29:58;25.80;74.80
44843;DHT22;31884;52.538;13.820;2023-08-17T13:32:24;25.80;74.80
44843;DHT22;31884;52.538;13.820;2023-08-17T13:34:50;25.80;74.20
44843;DHT22;31884;52.538;13.820;2023-08-17T13:37:16;25.80;73.70
44843;DHT22;31884;52.538;13.820;2023-08-17T13:39:42;25.90;74.10
44843;DHT22;31884;52.538;13.820;2023-08-17T13:42:07;25.90;74.40
44843;DHT22;31884;52.538;13.820;2023-08-17T13:44:33;25.90;74.80
44843;DHT22;31884;52.538;13.820;2023-08-17T13:46:58;25.90;74.00
44843;DHT22;31884;52.538;13.820;2023-08-17T13:49:24;25.80;72.60
44843;DHT22;31884;52.538;13.820;2023-08-17T13:51:49;25.80;74.20
44843;DHT22;31884;52.538;13.820;2023-08-17T13:54:15;25.80;73.20
44843;DHT22;31884;52.538;13.820;2023-08-17T13:56:40;25.80;74.70
44843;DHT22;31884;52.538;13.820;2023-08-17T13:59:06;25.80;73.00
44843;DHT22;31884;52.538;13.820;2023-08-17T14:01:31;25.80;72.80
44843;DHT22;31884;52.538;13.820;2023-08-17T14:03:56;25.90;73.10
44843;DHT22;31884;52.538;13.820;2023-08-17T14:06:22;25.90;73.70
44843;DHT22;31884;52.538;13.820;2023-08-17T14:08:47;25.90;74.20
44843;DHT22;31884;52.538;13.820;2023-08-17T14:11:13;26.00;73.70
44843;DHT22;31884;52.538;13.820;2023-08-17T14:13:38;26.10;74.50
44843;DHT22;31884;52.538;13.820;2023-08-17T14:16:04;26.10;73.30
44843;DHT22;31884;52.538;13.820;2023-08-17T14:18:30;26.20;72.80
44843;DHT22;31884;52.538;13.820;2023-08-17T14:20:55;26.20;72.90
44843;DHT22;31884;52.538;13.820;2023-08-17T14:23:21;26.30;72.40
44843;DHT22;31884;52.538;13.820;2023-08-17T14:25:46;26.40;72.50
44843;DHT22;31884;52.538;13.820;2023-08-17T14:28:12;26.30;72.20
44843;DHT22;31884;52.538;13.820;2023-08-17T14:30:37;26.30;71.70
44843;DHT22;31884;52.538;13.820;2023-08-17T14:33:03;26.30;71.40
44843;DHT22;31884;52.538;13.820;2023-08-17T14:35:28;26.40;72.30
44843;DHT22;31884;52.538;13.820;2023-08-17T14:37:54;26.40;71.40
44843;DHT22;31884;52.538;13.820;2023-08-17T14:40:23;26.50;71.70
44843;DHT22;31884;52.538;13.820;2023-08-17T14:42:48;26.40;71.60
44843;DHT22;31884;52.538;13.820;2023-08-17T14:45:14;26.40;70.70
44843;DHT22;31884;52.538;13.820;2023-08-17T14:47:39;26.40;71.00
44843;DHT22;31884;52.538;13.820;2023-08-17T14:50:05;26.40;70.80
44843;DHT22;31884;52.538;13.820;2023-08-17T14:52:31;26.40;70.10
44843;DHT22;31884;52.538;13.820;2023-08-17T14:54:57;26.30;68.80
44843;DHT22;31884;52.538;13.820;2023-08-17T14:57:22;26.30;69.70
44843;DHT22;31884;52.538;13.820;2023-08-17T14:59:48;26.20;68.90
44843;DHT22;31884;52.538;13.820;2023-08-17T15:02:13;26.20;70.50
44843;DHT22;31884;52.538;13.820;2023-08-17T15:04:39;26.20;70.20
44843;DHT22;31884;52.538;13.820;2023-08-17T15:07:05;26.30;71.20
44843;DHT22;31884;52.538;13.820;2023-08-17T15:09:36;26.30;70.40
44843;DHT22;31884;52.538;13.820;2023-08-17T15:12:01;26.20;70.40
44843;DHT22;31884;52.538;13.820;2023-08-17T15:14:27;26.20;69.70
44843;DHT22;31884;52.538;13.820;2023-08-17T15:16:52;26.20;69.50